Time;durP1;ratioP1;P1;durP2;ratioP2;P2;SDS_P1;SDS_P2;PMS_P1;PMS_P2;Temp;Humidity;BMP_temperature;BMP_pressure;BME280_temperature;BME280_humidity;BME280_pressure;Samples;Min_cycle;Max_cycle;Signal;HPM_P1;HPM_P2
2023/06/01 00:00:38;;;;;;;17.35;6.07;;;12.40;99.90;;;;;;5002203;28;20042;-52
2023/06/01 00:03:03;;;;;;;12.88;5.38;;;12.40;99.90;;;;;;5003314;28;20107;-59
2023/06/01 00:05:29;;;;;;;13.05;5.78;;;12.50;99.90;;;;;;5001737;28;20045;-56
2023/06/01 00:07:54;;;;;;;14.55;6.18;;;12.50;99.90;;;;;;5002632;28;20058;-53
2023/06/01 00:10:20;;;;;;;16.85;5.90;;;12.40;99.90;;;;;;5001918;28;20046;-59
2023/06/01 00:12:45;;;;;;;15.32;6.03;;;12.40;99.90;;;;;;5000775;28;20107;-55
2023/06/01 00:15:11;;;;;;;21.15;6.38;;;12.40;99.90;;;;;;5002499;28;20038;-58
2023/06/01 00:17:37;;;;;;;14.80;6.05;;;12.40;99.90;;;;;;5001550;28;20053;-49
2023/06/01 00:20:07;;;;;;;16.80;6.88;;;13.40;99.90;;;;;;5002242;28;20045;-54
2023/06/01 00:22:34;;;;;;;14.52;6.45;;;12.40;99.90;;;;;;5002960;28;20099;-61
2023/06/01 00:25:00;;;;;;;16.73;6.32;;;12.40;99.90;;;;;;5001576;28;20248;-59
2023/06/01 00:27:26;;;;;;;15.13;6.90;;;12.40;99.90;;;;;;5002446;28;20129;-55
2023/06/01 00:29:52;;;;;;;17.92;6.57;;;12.50;99.90;;;;;;5002334;28;20529;-60
2023/06/01 00:32:17;;;;;;;14.85;6.80;;;12.30;99.90;;;;;;5001714;28;20092;-57
2023/06/01 00:34:43;;;;;;;13.50;6.13;;;12.30;99.90;;;;;;5001639;28;20408;-57
2023/06/01 00:37:08;;;;;;;12.77;5.80;;;12.20;99.90;;;;;;5002115;28;20165;-60
2023/06/01 00:39:34;;;;;;;16.38;6.20;;;12.30;99.90;;;;;;5002575;28;20042;-54
2023/06/01 00:42:00;;;;;;;17.00;5.78;;;12.30;99.90;;;;;;5001451;28;20034;-60
2023/06/01 00:44:25;;;;;;;17.17;6.45;;;12.20;99.90;;;;;;5002178;28;20397;-53
2023/06/01 00:46:52;;;;;;;18.08;5.90;;;12.30;99.90;;;;;;5002387;28;20038;-60
2023/06/01 00:49:18;;;;;;;18.35;6.43;;;12.30;99.90;;;;;;5000625;28;20072;-58
2023/06/01 00:51:44;;;;;;;12.43;5.90;;;12.30;99.90;;;;;;5002275;28;20042;-55
2023/06/01 00:54:11;;;;;;;15.13;6.43;;;12.30;99.90;;;;;;5001711;28;20045;-54
2023/06/01 00:56:37;;;;;;;20.73;5.85;;;12.30;99.90;;;;;;5002387;28;20037;-58
2023/06/01 00:59:03;;;;;;;15.15;6.15;;;12.30;99.90;;;;;;5001745;28;20038;-57
2023/06/01 01:01:28;;;;;;;17.02;5.50;;;12.30;99.90;;;;;;5001887;28;20048;-59
2023/06/01 01:03:57;;;;;;;14.30;5.60;;;12.30;99.90;;;;;;5001211;28;20041;-55
2023/06/01 01:06:32;;;;;;;12.50;4.90;;;12.30;99.90;;;;;;5001555;28;20052;-59
2023/06/01 01:09:16;;;;;;;;;;;12.20;99.90;;;;;;5002390;28;20132;-53
2023/06/01 01:11:49;;;;;;;10.23;4.65;;;12.20;99.90;;;;;;5001554;28;19921;-58
2023/06/01 01:14:21;;;;;;;10.80;5.53;;;12.20;99.90;;;;;;5002253;28;20046;-61
2023/06/01 01:16:52;;;;;;;14.55;5.13;;;12.20;99.90;;;;;;5001432;28;20050;-53
2023/06/01 01:20:08;;;;;;;15.88;5.18;;;12.10;99.90;;;;;;5001574;28;20416;-61
2023/06/01 01:23:00;;;;;;;13.18;5.15;;;12.10;99.90;;;;;;5001782;28;20046;-60
2023/06/01 01:25:42;;;;;;;12.82;5.13;;;12.10;99.90;;;;;;5001398;28;20053;-53
2023/06/01 01:28:38;;;;;;;16.42;4.88;;;12.10;99.90;;;;;;5006090;28;20045;-61
2023/06/01 01:31:05;;;;;;;9.60;4.55;;;12.10;99.90;;;;;;5005427;28;20392;-54
2023/06/01 01:33:32;;;;;;;11.02;4.80;;;12.10;99.90;;;;;;5005454;28;20050;-53
2023/06/01 01:36:00;;;;;;;10.88;4.97;;;12.10;99.90;;;;;;5004287;28;20041;-60
2023/06/01 01:38:26;;;;;;;14.82;5.35;;;12.10;99.90;;;;;;5005101;28;20119;-50
2023/06/01 01:40:52;;;;;;;15.50;5.63;;;12.00;99.90;;;;;;5005971;28;20113;-54
2023/06/01 01:43:19;;;;;;;13.68;4.63;;;12.10;99.90;;;;;;5004625;28;20487;-57
2023/06/01 01:45:52;;;;;;;9.50;4.25;;;12.10;99.90;;;;;;5004861;28;20088;-52
2023/06/01 01:48:28;;;;;;;12.13;4.88;;;12.10;99.90;;;;;;5005069;28;20049;-54
2023/06/01 01:51:02;;;;;;;14.30;4.60;;;12.10;99.90;;;;;;5003827;28;20121;-60
2023/06/01 01:53:30;;;;;;;16.38;5.15;;;12.10;99.90;;;;;;5005274;28;20092;-47
2023/06/01 01:55:56;;;;;;;11.05;4.82;;;12.10;99.90;;;;;;5004507;28;20260;-59
2023/06/01 01:58:23;;;;;;;11.00;4.57;;;12.10;99.90;;;;;;5005057;28;20417;-53
2023/06/01 02:00:49;;;;;;;14.43;4.82;;;12.10;99.90;;;;;;5004985;28;20089;-59
2023/06/01 02:03:18;;;;;;;10.88;4.43;;;12.10;99.90;;;;;;5004716;28;20053;-54
2023/06/01 02:05:44;;;;;;;10.02;4.07;;;12.10;99.90;;;;;;5003861;28;20413;-54
2023/06/01 02:08:11;;;;;;;8.70;4.53;;;12.10;99.90;;;;;;5020094;28;20050;-58
2023/06/01 02:10:37;;;;;;;11.85;5.15;;;12.10;99.90;;;;;;5004494;28;20362;-53
2023/06/01 02:13:03;;;;;;;9.25;4.35;;;12.10;99.90;;;;;;5004585;28;20404;-60
2023/06/01 02:15:28;;;;;;;14.32;4.60;;;12.00;99.90;;;;;;5004416;28;20060;-58
2023/06/01 02:17:54;;;;;;;12.75;4.50;;;12.40;99.90;;;;;;5004749;28;20042;-56
2023/06/01 02:20:20;;;;;;;13.38;4.82;;;12.10;99.90;;;;;;5002240;28;20042;-56
2023/06/01 02:22:45;;;;;;;11.70;4.13;;;12.10;99.90;;;;;;5004369;28;20341;-56
2023/06/01 02:25:11;;;;;;;10.38;4.28;;;12.10;99.90;;;;;;5005346;28;20052;-60
2023/06/01 02:27:37;;;;;;;12.52;4.30;;;12.10;99.90;;;;;;5004130;28;20038;-49
2023/06/01 02:30:03;;;;;;;9.60;4.03;;;12.10;99.90;;;;;;5004456;28;20041;-56
2023/06/01 02:32:30;;;;;;;10.20;4.20;;;12.10;99.90;;;;;;5003085;28;20382;-49
2023/06/01 02:34:56;;;;;;;10.25;4.10;;;12.10;99.90;;;;;;5003520;28;20074;-57
2023/06/01 02:37:21;;;;;;;9.73;4.35;;;12.10;99.90;;;;;;5003807;28;20535;-57
2023/06/01 02:39:47;;;;;;;10.35;4.00;;;12.10;99.90;;;;;;5035843;28;20342;-60
2023/06/01 02:42:13;;;;;;;10.15;4.15;;;12.10;99.90;;;;;;5004556;28;20050;-55
2023/06/01 02:44:38;;;;;;;10.27;4.00;;;12.10;99.90;;;;;;5003640;28;20400;-61
2023/06/01 02:47:05;;;;;;;10.07;4.05;;;12.10;99.90;;;;;;5004205;28;20508;-55
2023/06/01 02:49:31;;;;;;;9.05;4.47;;;12.10;99.90;;;;;;5003696;28;20156;-60
2023/06/01 02:51:56;;;;;;;11.23;4.45;;;12.10;99.90;;;;;;5002145;28;20304;-56
2023/06/01 02:54:22;;;;;;;11.57;4.55;;;12.10;99.90;;;;;;5002571;28;20088;-58
2023/06/01 02:56:47;;;;;;;10.82;4.93;;;12.10;99.90;;;;;;5003997;28;20037;-55
2023/06/01 02:59:13;;;;;;;13.23;5.00;;;12.10;99.90;;;;;;5003845;28;20128;-55
2023/06/01 03:01:39;;;;;;;16.98;5.32;;;12.10;99.90;;;;;;5003516;28;20160;-59
2023/06/01 03:04:04;;;;;;;10.82;4.40;;;12.00;99.90;;;;;;5003020;28;20057;-54
2023/06/01 03:06:45;;;;;;;10.10;4.22;;;12.00;99.90;;;;;;5167003;22;21195;-59
2023/06/01 03:09:12;;;;;;;14.82;5.38;;;12.00;99.90;;;;;;5134899;22;20058;-56
2023/06/01 03:11:42;;;;;;;14.13;4.90;;;12.10;99.90;;;;;;4987323;28;20054;-55
2023/06/01 03:14:08;;;;;;;11.00;4.65;;;12.10;99.90;;;;;;4988346;28;20049;-59
2023/06/01 03:16:34;;;;;;;12.50;5.20;;;12.10;99.90;;;;;;5023248;28;20037;-60
2023/06/01 03:19:00;;;;;;;12.75;5.25;;;12.10;99.90;;;;;;5022843;28;20403;-53
2023/06/01 03:21:27;;;;;;;11.23;4.82;;;12.10;99.90;;;;;;5023671;28;20138;-60
2023/06/01 03:23:52;;;;;;;13.98;5.55;;;12.00;99.90;;;;;;5022452;28;20047;-58
2023/06/01 03:26:20;;;;;;;19.30;6.03;;;12.00;99.90;;;;;;5023339;28;20037;-57
2023/06/01 03:28:46;;;;;;;13.50;6.20;;;12.00;99.90;;;;;;5023205;28;20037;-60
2023/06/01 03:31:12;;;;;;;14.15;5.93;;;12.00;99.90;;;;;;5023117;28;20403;-55
2023/06/01 03:33:38;;;;;;;12.35;5.55;;;12.00;99.90;;;;;;5022188;28;20359;-61
2023/06/01 03:36:04;;;;;;;13.82;6.18;;;12.00;99.90;;;;;;5004807;28;20167;-60
2023/06/01 03:38:30;;;;;;;16.58;5.60;;;12.00;99.90;;;;;;5022802;28;20042;-55
2023/06/01 03:40:56;;;;;;;12.65;5.88;;;12.00;99.90;;;;;;5022556;28;20439;-60
2023/06/01 03:43:22;;;;;;;13.95;5.97;;;12.00;99.90;;;;;;5022638;28;20132;-55
2023/06/01 03:45:47;;;;;;;13.00;5.97;;;12.00;99.90;;;;;;5022758;28;20044;-61
2023/06/01 03:48:13;;;;;;;18.42;5.82;;;12.00;99.90;;;;;;5021053;28;20274;-60
2023/06/01 03:50:38;;;;;;;14.90;5.38;;;12.00;99.90;;;;;;5021934;28;20037;-57
2023/06/01 03:53:04;;;;;;;15.60;5.50;;;11.90;99.90;;;;;;5022060;28;20041;-59
2023/06/01 03:55:30;;;;;;;12.43;4.90;;;11.90;99.90;;;;;;5022859;28;20077;-52
2023/06/01 03:57:56;;;;;;;11.35;5.28;;;11.90;99.90;;;;;;5022570;28;20578;-60
2023/06/01 04:00:23;;;;;;;17.02;6.18;;;11.90;99.90;;;;;;5022247;28;20037;-54
2023/06/01 04:02:54;;;;;;;15.30;5.53;;;11.90;99.90;;;;;;5022495;28;20072;-52
2023/06/01 04:05:21;;;;;;;11.02;5.78;;;11.90;99.90;;;;;;5021199;28;20096;-57
2023/06/01 04:07:50;;;;;;;14.13;5.88;;;12.00;99.90;;;;;;5022794;28;20479;-57
2023/06/01 04:10:16;;;;;;;14.48;6.00;;;12.00;99.90;;;;;;5004296;28;20045;-61
2023/06/01 04:12:48;;;;;;;14.18;5.95;;;12.00;99.90;;;;;;5021754;28;20400;-55
2023/06/01 04:15:16;;;;;;;14.52;6.00;;;11.90;99.90;;;;;;5022853;28;20029;-55
2023/06/01 04:17:43;;;;;;;9.48;5.38;;;12.10;99.90;;;;;;5022767;28;20045;-60
2023/06/01 04:20:11;;;;;;;12.35;5.30;;;11.90;99.90;;;;;;5003370;28;20539;-60
2023/06/01 04:22:37;;;;;;;11.52;5.57;;;11.90;99.90;;;;;;5022422;28;20067;-53
2023/06/01 04:25:08;;;;;;;14.23;5.28;;;12.00;99.90;;;;;;5022351;28;20128;-61
2023/06/01 04:27:36;;;;;;;11.65;5.05;;;11.90;99.90;;;;;;5021559;28;20046;-60
2023/06/01 04:30:10;;;;;;;13.38;5.07;;;11.90;99.90;;;;;;5004396;28;20459;-60
2023/06/01 04:32:37;;;;;;;13.02;5.68;;;11.90;99.90;;;;;;5021056;28;20388;-47
2023/06/01 04:35:07;;;;;;;9.75;5.20;;;11.90;99.90;;;;;;5021040;28;20041;-52
2023/06/01 04:37:39;;;;;;;12.63;6.10;;;11.80;99.90;;;;;;5022008;28;20535;-55
2023/06/01 04:40:09;;;;;;;14.30;5.25;;;11.80;99.90;;;;;;5003558;28;20070;-54
2023/06/01 04:42:42;;;;;;;15.82;5.80;;;11.80;99.90;;;;;;5022083;28;20033;-53
2023/06/01 04:45:11;;;;;;;14.63;5.72;;;11.80;99.90;;;;;;5021990;28;20049;-53
2023/06/01 04:47:39;;;;;;;8.88;5.53;;;11.70;99.90;;;;;;5021669;28;20044;-59
2023/06/01 04:50:09;;;;;;;13.10;6.07;;;11.70;99.90;;;;;;5003468;28;20049;-59
2023/06/01 04:52:36;;;;;;;16.45;6.55;;;11.70;99.90;;;;;;5003454;28;20060;-60
2023/06/01 04:55:04;;;;;;;14.82;6.18;;;11.70;99.90;;;;;;5021256;28;20183;-53
2023/06/01 04:57:30;;;;;;;13.32;6.40;;;11.70;99.90;;;;;;5004273;28;20377;-60
2023/06/01 04:59:56;;;;;;;12.70;6.03;;;11.80;99.90;;;;;;5021012;28;20546;-60
2023/06/01 05:02:23;;;;;;;14.07;5.68;;;11.80;99.90;;;;;;5021525;28;20116;-58
2023/06/01 05:04:49;;;;;;;12.75;5.35;;;11.80;99.90;;;;;;5021398;28;20072;-60
2023/06/01 05:07:15;;;;;;;10.57;5.60;;;11.80;99.90;;;;;;5021329;28;20038;-56
2023/06/01 05:09:41;;;;;;;8.73;4.90;;;11.80;99.90;;;;;;5003421;28;20053;-60
2023/06/01 05:12:07;;;;;;;12.45;5.45;;;11.80;99.90;;;;;;5036578;28;20041;-54
2023/06/01 05:14:32;;;;;;;13.65;5.07;;;11.80;99.90;;;;;;5041338;28;20041;-53
2023/06/01 05:16:58;;;;;;;13.95;5.47;;;11.70;99.90;;;;;;5041265;28;20114;-52
2023/06/01 05:19:23;;;;;;;16.40;5.80;;;11.80;99.90;;;;;;5040165;28;20033;-53
2023/06/01 05:21:49;;;;;;;12.85;5.90;;;11.80;99.90;;;;;;5042043;28;20107;-61
2023/06/01 05:24:14;;;;;;;11.60;5.65;;;11.80;99.90;;;;;;5041051;28;20041;-55
2023/06/01 05:26:40;;;;;;;17.33;6.22;;;11.80;99.90;;;;;;5041529;28;20186;-60
2023/06/01 05:29:06;;;;;;;14.27;5.80;;;11.80;99.90;;;;;;5040841;28;20559;-48
2023/06/01 05:31:31;;;;;;;16.30;5.60;;;12.00;99.90;;;;;;5041138;28;20045;-54
2023/06/01 05:33:57;;;;;;;14.00;5.10;;;11.80;99.90;;;;;;5040313;28;20061;-59
2023/06/01 05:36:23;;;;;;;13.50;5.35;;;11.70;99.90;;;;;;5040965;28;20037;-53
2023/06/01 05:38:48;;;;;;;13.85;5.45;;;11.80;99.90;;;;;;5041241;28;20428;-57
2023/06/01 05:41:14;;;;;;;12.27;5.20;;;11.80;99.90;;;;;;5040992;28;20037;-55
2023/06/01 05:43:39;;;;;;;10.68;4.68;;;11.80;99.90;;;;;;5040350;28;20076;-57
2023/06/01 05:46:06;;;;;;;9.57;5.40;;;12.10;99.90;;;;;;5022871;28;20040;-60
2023/06/01 05:48:32;;;;;;;13.55;5.95;;;11.90;99.90;;;;;;5040475;28;20632;-53
2023/06/01 05:50:57;;;;;;;14.80;5.65;;;11.90;99.90;;;;;;5040687;28;20037;-49
2023/06/01 05:53:24;;;;;;;10.00;4.72;;;11.80;99.90;;;;;;5041174;28;20077;-55
2023/06/01 05:55:51;;;;;;;10.48;4.80;;;11.90;99.90;;;;;;5041970;28;20387;-58
2023/06/01 05:58:17;;;;;;;9.18;4.60;;;11.80;99.90;;;;;;5040409;28;20040;-58
2023/06/01 06:00:43;;;;;;;11.95;4.90;;;11.80;99.90;;;;;;5041013;28;20283;-54
2023/06/01 06:03:08;;;;;;;10.13;4.60;;;11.80;99.90;;;;;;5022731;28;20045;-54
2023/06/01 06:05:34;;;;;;;8.45;3.65;;;11.80;99.90;;;;;;5040571;28;20130;-58
2023/06/01 06:08:00;;;;;;;8.13;3.50;;;11.90;99.90;;;;;;5040497;28;20048;-58
2023/06/01 06:10:26;;;;;;;10.43;3.67;;;11.80;99.90;;;;;;5040598;28;20045;-60
2023/06/01 06:12:52;;;;;;;8.27;3.85;;;11.80;99.90;;;;;;5043725;28;20048;-48
2023/06/01 06:15:18;;;;;;;6.10;3.30;;;12.90;99.90;;;;;;5044393;28;20049;-60
2023/06/01 06:17:43;;;;;;;6.75;3.20;;;11.80;99.90;;;;;;5044136;28;20617;-56
2023/06/01 06:20:10;;;;;;;6.35;3.33;;;13.10;99.90;;;;;;5044301;28;20035;-60
2023/06/01 06:22:36;;;;;;;5.70;2.78;;;11.80;99.90;;;;;;5026274;28;20044;-59
2023/06/01 06:25:02;;;;;;;6.25;2.80;;;11.80;99.90;;;;;;5043710;28;20040;-52
2023/06/01 06:27:28;;;;;;;7.50;2.80;;;11.80;99.90;;;;;;5043885;28;20179;-58
2023/06/01 06:29:54;;;;;;;6.28;2.92;;;11.80;99.90;;;;;;5043962;28;20340;-54
2023/06/01 06:32:20;;;;;;;5.25;2.55;;;11.80;99.90;;;;;;5025793;28;20049;-55
2023/06/01 06:34:46;;;;;;;4.60;2.67;;;11.80;99.90;;;;;;5043243;28;20053;-60
2023/06/01 06:37:11;;;;;;;8.57;2.42;;;11.80;99.90;;;;;;5044261;28;20033;-54
2023/06/01 06:39:37;;;;;;;7.00;2.70;;;11.90;99.90;;;;;;5043549;28;20048;-58
2023/06/01 06:42:06;;;;;;;5.88;2.47;;;13.20;99.90;;;;;;5043645;28;20462;-55
2023/06/01 06:44:32;;;;;;;5.43;2.30;;;12.00;99.90;;;;;;5044005;28;20053;-55
2023/06/01 06:47:00;;;;;;;3.90;1.90;;;12.00;99.90;;;;;;5025861;28;20048;-55
2023/06/01 06:49:26;;;;;;;5.43;2.53;;;12.00;99.90;;;;;;5043387;28;20366;-58
2023/06/01 06:51:51;;;;;;;4.78;2.10;;;12.00;99.90;;;;;;5044055;28;20423;-58
2023/06/01 06:54:17;;;;;;;2.97;1.88;;;12.10;99.90;;;;;;5043525;28;20687;-56
2023/06/01 06:56:44;;;;;;;5.57;1.88;;;12.10;99.90;;;;;;5043145;28;20045;-52
2023/06/01 06:59:10;;;;;;;4.68;2.10;;;12.10;99.90;;;;;;5044306;28;20041;-61
2023/06/01 07:01:35;;;;;;;4.60;1.83;;;12.20;99.90;;;;;;5043402;28;20048;-59
2023/06/01 07:04:06;;;;;;;3.78;1.70;;;12.20;99.90;;;;;;5024733;28;20384;-58
2023/06/01 07:06:33;;;;;;;4.40;1.80;;;12.20;99.90;;;;;;5043341;28;20051;-54
2023/06/01 07:08:59;;;;;;;4.18;1.67;;;12.20;99.90;;;;;;5043213;28;20385;-59
2023/06/01 07:11:26;;;;;;;4.35;1.50;;;12.20;99.90;;;;;;5042788;28;20060;-55
2023/06/01 07:13:53;;;;;;;2.17;1.20;;;12.40;99.90;;;;;;5043848;28;20053;-61
2023/06/01 07:16:18;;;;;;;2.95;1.30;;;12.60;99.90;;;;;;5025210;28;20049;-60
2023/06/01 07:18:44;;;;;;;3.03;1.20;;;12.40;99.90;;;;;;5042571;28;20048;-57
2023/06/01 07:21:09;;;;;;;5.05;1.35;;;12.60;99.90;;;;;;5042712;28;20052;-59
2023/06/01 07:23:35;;;;;;;4.78;1.55;;;12.50;99.90;;;;;;5042947;28;20045;-53
2023/06/01 07:26:01;;;;;;;4.20;1.75;;;12.50;99.90;;;;;;5043478;28;20060;-55
2023/06/01 07:28:27;;;;;;;5.13;2.10;;;12.50;99.90;;;;;;5042592;28;20134;-55
2023/06/01 07:30:54;;;;;;;4.28;2.08;;;12.70;99.90;;;;;;5043409;28;20468;-56
2023/06/01 07:33:20;;;;;;;3.92;1.90;;;12.50;99.90;;;;;;5041937;28;20444;-57
2023/06/01 07:35:46;;;;;;;4.30;2.30;;;12.40;99.90;;;;;;5042209;28;20045;-53
2023/06/01 07:38:12;;;;;;;5.65;2.13;;;12.40;99.90;;;;;;5043236;28;20048;-57
2023/06/01 07:40:37;;;;;;;7.45;2.78;;;12.40;99.90;;;;;;5042543;28;20155;-60
2023/06/01 07:43:03;;;;;;;5.38;3.03;;;12.40;99.90;;;;;;5024974;28;20044;-57
2023/06/01 07:45:29;;;;;;;10.73;3.13;;;12.40;99.90;;;;;;5042872;28;20587;-59
2023/06/01 07:47:54;;;;;;;4.28;2.65;;;12.30;99.90;;;;;;5041776;28;20463;-55
2023/06/01 07:50:20;;;;;;;7.35;3.22;;;12.30;99.90;;;;;;5042852;28;20570;-58
2023/06/01 07:52:46;;;;;;;8.82;3.45;;;12.30;99.90;;;;;;5041803;28;20557;-57
2023/06/01 07:55:12;;;;;;;7.53;3.63;;;12.30;99.90;;;;;;5042615;28;20040;-52
2023/06/01 07:57:37;;;;;;;8.55;3.90;;;12.30;99.90;;;;;;5042404;28;20091;-58
2023/06/01 08:00:07;;;;;;;10.00;3.80;;;12.20;99.90;;;;;;5024134;28;20120;-48
2023/06/01 08:02:33;;;;;;;10.02;3.97;;;12.20;99.90;;;;;;5024976;28;20096;-57
2023/06/01 08:04:59;;;;;;;9.77;4.10;;;12.30;99.90;;;;;;5023681;28;20072;-57
2023/06/01 08:07:27;;;;;;;8.02;3.72;;;12.30;99.90;;;;;;5024390;28;20045;-54
2023/06/01 08:09:53;;;;;;;9.05;3.75;;;12.30;99.90;;;;;;5042546;28;20052;-55
2023/06/01 08:12:19;;;;;;;8.75;3.80;;;12.30;99.90;;;;;;5041644;28;20049;-60
2023/06/01 08:14:45;;;;;;;7.43;3.85;;;12.20;99.90;;;;;;5042424;28;20511;-53
2023/06/01 08:17:11;;;;;;;6.93;3.58;;;12.20;99.90;;;;;;5041455;28;20134;-56
2023/06/01 08:19:37;;;;;;;10.70;3.92;;;12.20;99.90;;;;;;5041074;28;20242;-56
2023/06/01 08:22:05;;;;;;;8.18;4.40;;;12.40;99.90;;;;;;5024064;28;20037;-55
2023/06/01 08:24:32;;;;;;;12.15;4.68;;;12.30;99.90;;;;;;5041978;28;20415;-51
2023/06/01 08:26:57;;;;;;;7.40;3.75;;;12.30;99.90;;;;;;5042010;28;20045;-55
2023/06/01 08:29:23;;;;;;;7.68;3.67;;;12.40;99.90;;;;;;5023876;28;20411;-58
2023/06/01 08:31:49;;;;;;;11.65;4.35;;;12.50;99.90;;;;;;5041215;28;20618;-58
2023/06/01 08:34:15;;;;;;;8.35;4.05;;;12.50;99.90;;;;;;5022986;28;20057;-49
2023/06/01 08:36:40;;;;;;;11.23;4.30;;;12.80;99.90;;;;;;5024395;28;20045;-60
2023/06/01 08:39:25;;;;;;;12.68;4.18;;;12.60;99.90;;;;;;5044398;28;20415;-60
2023/06/01 08:42:13;;;;;;;11.15;4.70;;;12.70;99.90;;;;;;5042629;28;20049;-61
2023/06/01 08:44:40;;;;;;;13.35;5.07;;;12.70;99.90;;;;;;5022996;28;20072;-60
2023/06/01 08:47:06;;;;;;;12.15;4.35;;;12.70;99.90;;;;;;5041459;28;20071;-58
2023/06/01 08:49:34;;;;;;;12.38;5.00;;;12.70;99.90;;;;;;5023705;28;20045;-54
2023/06/01 08:52:07;;;;;;;12.07;4.65;;;12.70;99.90;;;;;;5041518;28;20045;-48
2023/06/01 08:54:33;;;;;;;15.27;4.20;;;12.60;99.90;;;;;;5041940;28;20041;-60
2023/06/01 08:57:04;;;;;;;7.90;3.70;;;12.80;99.90;;;;;;5023794;28;20132;-56
2023/06/01 08:59:31;;;;;;;9.68;3.97;;;12.70;99.90;;;;;;5039489;28;20245;-55
2023/06/01 09:01:58;;;;;;;10.77;3.85;;;12.80;99.90;;;;;;5040298;28;20155;-57
2023/06/01 09:04:23;;;;;;;17.27;4.55;;;12.80;99.90;;;;;;5039661;28;20434;-54
2023/06/01 09:06:49;;;;;;;11.10;4.00;;;13.00;99.90;;;;;;5040235;28;20041;-57
2023/06/01 09:09:15;;;;;;;10.95;4.07;;;12.80;99.90;;;;;;5040139;28;20052;-58
2023/06/01 09:11:40;;;;;;;10.68;3.85;;;12.90;99.90;;;;;;5040177;28;20120;-58
2023/06/01 09:14:22;;;;;;;14.07;4.28;;;12.80;99.90;;;;;;5041437;28;20415;-48
2023/06/01 09:16:48;;;;;;;9.98;3.78;;;12.70;99.90;;;;;;5041640;28;20041;-56
2023/06/01 09:19:14;;;;;;;12.40;3.65;;;12.70;99.90;;;;;;5041025;28;20645;-60
2023/06/01 09:21:40;;;;;;;10.20;3.10;;;12.90;99.90;;;;;;5041154;28;20349;-60
2023/06/01 09:24:19;;;;;;;11.60;3.47;;;12.80;99.90;;;;;;5023597;28;20052;-59
2023/06/01 09:26:48;;;;;;;8.75;3.33;;;12.80;99.90;;;;;;5041629;28;20053;-53
2023/06/01 09:29:14;;;;;;;10.07;3.40;;;12.90;99.90;;;;;;5041369;28;20044;-54
2023/06/01 09:31:46;;;;;;;10.05;3.13;;;13.00;99.90;;;;;;5041765;28;20041;-58
2023/06/01 09:34:18;;;;;;;7.50;3.00;;;13.00;99.90;;;;;;5040822;28;20053;-55
2023/06/01 09:36:45;;;;;;;6.03;2.80;;;13.10;99.90;;;;;;5041286;28;20175;-60
2023/06/01 09:39:16;;;;;;;7.35;3.13;;;13.20;99.90;;;;;;5022902;28;20538;-59
2023/06/01 09:41:47;;;;;;;10.65;3.53;;;13.20;99.90;;;;;;5040762;28;20041;-61
2023/06/01 09:44:21;;;;;;;8.70;3.35;;;13.20;99.90;;;;;;5041214;28;20060;-58
2023/06/01 09:46:54;;;;;;;10.07;3.35;;;13.30;99.90;;;;;;5042302;28;20060;-59
2023/06/01 09:49:30;;;;;;;12.43;3.97;;;13.40;99.90;;;;;;5043815;28;20155;-53
2023/06/01 09:52:05;;;;;;;10.93;3.28;;;13.40;99.90;;;;;;5044811;28;20110;-61
2023/06/01 09:54:42;;;;;;;8.70;3.60;;;13.40;99.90;;;;;;5044827;28;20064;-48
2023/06/01 09:57:09;;;;;;;11.00;3.33;;;13.40;99.90;;;;;;5044755;28;20405;-56
2023/06/01 09:59:41;;;;;;;13.23;3.70;;;13.40;99.90;;;;;;5026698;28;20052;-57
2023/06/01 10:02:31;;;;;;;8.32;3.28;;;13.40;99.90;;;;;;5044916;28;20131;-62
2023/06/01 10:04:58;;;;;;;11.55;3.67;;;13.40;99.90;;;;;;5045082;28;20122;-53
2023/06/01 10:07:26;;;;;;;11.88;3.97;;;13.40;99.90;;;;;;5045184;28;20123;-55
2023/06/01 10:09:58;;;;;;;12.50;4.07;;;13.40;99.90;;;;;;5044951;28;20045;-58
2023/06/01 10:12:28;;;;;;;10.77;3.10;;;13.40;99.90;;;;;;5044389;28;20052;-58
2023/06/01 10:14:55;;;;;;;18.55;4.57;;;13.50;99.90;;;;;;5045314;28;20037;-57
2023/06/01 10:17:21;;;;;;;14.02;4.22;;;13.50;99.90;;;;;;5044638;28;20115;-59
2023/06/01 10:19:47;;;;;;;9.65;3.10;;;13.50;99.90;;;;;;5043837;28;20529;-50
2023/06/01 10:22:14;;;;;;;15.80;4.22;;;13.60;99.90;;;;;;5044354;28;20045;-61
2023/06/01 10:24:41;;;;;;;12.25;3.53;;;13.60;99.90;;;;;;5044584;28;20388;-61
2023/06/01 10:27:24;;;;;;;14.57;4.35;;;13.60;99.90;;;;;;5044448;28;20041;-58
2023/06/01 10:29:52;;;;;;;17.27;3.78;;;13.70;99.90;;;;;;5044450;28;20476;-54
2023/06/01 10:32:42;;;;;;;10.43;3.50;;;13.60;99.90;;;;;;5043927;28;20629;-56
2023/06/01 10:35:10;;;;;;;10.90;3.40;;;13.70;99.90;;;;;;5044314;28;20036;-61
2023/06/01 10:37:36;;;;;;;12.73;3.72;;;13.80;99.90;;;;;;5044469;28;20087;-60
2023/06/01 10:40:30;;;;;;;9.98;3.55;;;13.80;99.90;;;;;;5043819;28;20643;-56
2023/06/01 10:42:56;;;;;;;12.88;3.60;;;14.00;99.90;;;;;;5022783;28;20446;-50
2023/06/01 10:45:34;;;;;;;12.38;4.05;;;14.00;99.90;;;;;;5043721;28;20041;-61
2023/06/01 10:48:00;;;;;;;11.48;3.80;;;14.10;99.90;;;;;;5043487;28;20045;-62
2023/06/01 10:50:26;;;;;;;11.77;3.15;;;14.20;99.90;;;;;;5043811;28;20503;-56
2023/06/01 10:52:54;;;;;;;11.32;3.38;;;14.20;99.90;;;;;;5043726;28;20100;-50
2023/06/01 10:55:22;;;;;;;12.27;3.13;;;14.20;99.90;;;;;;5044460;28;20041;-54
2023/06/01 10:57:48;;;;;;;8.80;2.95;;;14.30;99.90;;;;;;5043528;28;20456;-59
2023/06/01 11:00:19;;;;;;;9.65;3.25;;;14.30;99.90;;;;;;5043113;28;20083;-50
2023/06/01 11:02:49;;;;;;;9.82;3.40;;;14.40;99.90;;;;;;5043257;28;20041;-54
2023/06/01 11:05:43;;;;;;;9.75;3.38;;;14.40;99.90;;;;;;5044106;28;20037;-50
2023/06/01 11:08:23;;;;;;;11.30;3.58;;;14.50;99.90;;;;;;5043828;28;20045;-62
2023/06/01 11:10:52;;;;;;;9.40;2.90;;;14.60;99.90;;;;;;5042695;28;20045;-57
2023/06/01 11:13:24;;;;;;;12.82;3.92;;;14.60;99.90;;;;;;5043883;28;20136;-56
2023/06/01 11:16:13;;;;;;;11.00;3.67;;;14.60;99.90;;;;;;5043370;28;20084;-50
2023/06/01 11:18:58;;;;;;;14.20;3.30;;;14.70;99.90;;;;;;5042966;28;20495;-55
2023/06/01 11:21:25;;;;;;;10.25;3.00;;;14.70;99.90;;;;;;5043092;28;20045;-53
2023/06/01 11:23:53;;;;;;;9.63;2.78;;;14.60;99.90;;;;;;5025568;28;20041;-56
2023/06/01 11:26:21;;;;;;;11.85;2.85;;;14.60;99.90;;;;;;5043367;28;20052;-59
2023/06/01 11:28:48;;;;;;;9.73;2.58;;;14.50;99.90;;;;;;5042705;28;20041;-61
2023/06/01 11:31:16;;;;;;;9.52;3.10;;;14.50;99.90;;;;;;5042891;28;20048;-55
2023/06/01 11:33:48;;;;;;;7.68;2.78;;;14.50;99.90;;;;;;5042286;28;20106;-58
2023/06/01 11:36:16;;;;;;;7.97;2.47;;;14.50;99.90;;;;;;5024751;28;20396;-55
2023/06/01 11:38:43;;;;;;;7.10;2.65;;;14.50;99.90;;;;;;5043564;28;20053;-61
2023/06/01 11:41:09;;;;;;;7.22;2.35;;;14.40;99.90;;;;;;5042966;28;20041;-51
2023/06/01 11:43:35;;;;;;;8.50;2.40;;;14.40;99.90;;;;;;5042408;28;20045;-58
2023/06/01 11:46:05;;;;;;;7.65;2.70;;;14.40;99.90;;;;;;5042978;28;20434;-57
2023/06/01 11:48:31;;;;;;;5.63;2.17;;;14.40;99.90;;;;;;5042415;28;20049;-56
2023/06/01 11:50:58;;;;;;;7.55;2.17;;;14.40;99.90;;;;;;5042760;28;20048;-51
2023/06/01 11:53:24;;;;;;;7.63;2.33;;;14.40;99.90;;;;;;5042997;28;20049;-60
2023/06/01 11:55:54;;;;;;;10.52;2.63;;;14.40;99.90;;;;;;5042595;28;20037;-59
2023/06/01 11:58:22;;;;;;;9.95;2.85;;;14.40;99.90;;;;;;5042201;28;20054;-61
2023/06/01 12:00:48;;;;;;;7.65;2.47;;;14.30;99.90;;;;;;5042698;28;20049;-61
2023/06/01 12:03:13;;;;;;;5.90;2.72;;;14.40;99.90;;;;;;5041922;28;20037;-58
2023/06/01 12:05:48;;;;;;;9.77;3.03;;;14.30;99.90;;;;;;5042108;28;20376;-54
2023/06/01 12:08:17;;;;;;;9.25;3.00;;;14.50;99.90;;;;;;5042700;28;20253;-57
2023/06/01 12:10:44;;;;;;;8.38;2.90;;;14.50;99.90;;;;;;5041874;28;20061;-61
2023/06/01 12:13:11;;;;;;;6.50;2.47;;;14.40;99.90;;;;;;5023642;28;20091;-60
2023/06/01 12:15:37;;;;;;;8.80;3.10;;;14.30;99.90;;;;;;5042134;28;20045;-54
2023/06/01 12:18:03;;;;;;;7.78;3.00;;;14.20;99.90;;;;;;5041663;28;20098;-54
2023/06/01 12:20:30;;;;;;;9.00;3.10;;;14.30;99.90;;;;;;5042071;28;20057;-61
2023/06/01 12:22:58;;;;;;;9.13;3.28;;;15.30;99.90;;;;;;5042163;28;20045;-61
2023/06/01 12:25:24;;;;;;;7.60;3.30;;;14.40;99.90;;;;;;5042018;28;20049;-61
2023/06/01 12:28:04;;;;;;;9.90;3.55;;;14.40;99.90;;;;;;5041756;28;20045;-59
2023/06/01 12:30:30;;;;;;;10.00;3.10;;;14.50;99.90;;;;;;5042088;28;20044;-53
2023/06/01 12:32:56;;;;;;;11.40;3.72;;;14.50;99.90;;;;;;5041638;28;20484;-56
2023/06/01 12:35:25;;;;;;;11.93;3.22;;;14.40;99.90;;;;;;5041585;28;20060;-60
2023/06/01 12:38:04;;;;;;;7.60;2.95;;;14.30;99.90;;;;;;5041975;28;20041;-60
2023/06/01 12:40:30;;;;;;;11.23;3.40;;;14.30;99.90;;;;;;5041921;28;20048;-61
2023/06/01 12:42:55;;;;;;;10.65;3.97;;;14.20;99.90;;;;;;5041456;28;20438;-57
2023/06/01 12:45:21;;;;;;;16.55;4.07;;;14.20;99.90;;;;;;5024588;28;20041;-56